Time;durP1;ratioP1;P1;durP2;ratioP2;P2;SDS_P1;SDS_P2;PMS_P1;PMS_P2;Temp;Humidity;BMP_temperature;BMP_pressure;BME280_temperature;BME280_humidity;BME280_pressure;Samples;Min_cycle;Max_cycle;Signal;HPM_P1;HPM_P2
2022/11/01 00:01:05;;;;;;;31.70;20.70;;;14.40;99.90;;;;;;4976944;29;20456;-43
2022/11/01 00:03:34;;;;;;;35.03;20.40;;;14.40;99.90;;;;;;4976998;29;20463;-45
2022/11/01 00:06:00;;;;;;;31.97;19.70;;;14.40;99.90;;;;;;4976767;29;20471;-49
2022/11/01 00:08:29;;;;;;;36.87;21.17;;;14.40;99.90;;;;;;4976982;29;20462;-43
2022/11/01 00:11:02;;;;;;;34.87;19.60;;;14.50;99.90;;;;;;4976474;29;20483;-40
2022/11/01 00:13:29;;;;;;;32.43;19.77;;;14.50;99.90;;;;;;4977282;29;20484;-41
2022/11/01 00:15:55;;;;;;;37.40;21.10;;;14.50;99.90;;;;;;4977009;29;20554;-44
2022/11/01 00:18:22;;;;;;;31.17;19.67;;;14.50;99.90;;;;;;4976656;29;20487;-48
2022/11/01 00:20:51;;;;;;;35.87;21.57;;;14.50;99.90;;;;;;4976531;29;20472;-41
2022/11/01 00:23:19;;;;;;;31.07;20.70;;;14.50;99.90;;;;;;4976975;29;20434;-44
2022/11/01 00:25:48;;;;;;;32.23;20.00;;;14.50;99.90;;;;;;4977098;29;20474;-46
2022/11/01 00:28:16;;;;;;;36.43;21.30;;;14.40;99.90;;;;;;4977059;28;20428;-47
2022/11/01 00:30:43;;;;;;;34.60;19.37;;;14.50;99.90;;;;;;4976557;29;20451;-46
2022/11/01 00:33:15;;;;;;;34.10;20.50;;;14.50;99.90;;;;;;4976955;29;20478;-45
2022/11/01 00:35:42;;;;;;;47.10;22.90;;;14.40;99.90;;;;;;4972332;29;20419;-44
2022/11/01 00:38:09;;;;;;;33.77;21.43;;;14.40;99.90;;;;;;4972979;29;20474;-46
2022/11/01 00:40:36;;;;;;;31.40;20.17;;;14.50;99.90;;;;;;4964906;28;20424;-48
2022/11/01 00:43:04;;;;;;;31.73;20.23;;;14.50;99.90;;;;;;4979288;29;20452;-43
2022/11/01 00:45:30;;;;;;;28.50;19.60;;;14.50;99.90;;;;;;4979772;29;20517;-48
2022/11/01 00:47:59;;;;;;;32.03;19.63;;;14.50;99.90;;;;;;4979905;29;20454;-48
2022/11/01 00:50:26;;;;;;;34.43;19.20;;;14.50;99.90;;;;;;4980404;29;20447;-48
2022/11/01 00:52:54;;;;;;;37.30;18.73;;;14.60;99.90;;;;;;4979972;29;20492;-42
2022/11/01 00:55:21;;;;;;;33.20;19.07;;;14.60;99.90;;;;;;4979920;29;20432;-46
2022/11/01 00:57:48;;;;;;;27.87;19.33;;;14.60;99.90;;;;;;4979616;29;20463;-41
2022/11/01 01:00:17;;;;;;;28.57;18.83;;;14.60;99.90;;;;;;4979997;29;20470;-48
2022/11/01 01:02:43;;;;;;;30.43;20.90;;;14.60;99.90;;;;;;4979728;29;20491;-45
2022/11/01 01:05:10;;;;;;;28.80;18.30;;;14.50;99.90;;;;;;4979904;29;20480;-42
2022/11/01 01:07:37;;;;;;;30.30;18.73;;;14.50;99.90;;;;;;4979733;29;20463;-44
2022/11/01 01:10:06;;;;;;;31.20;18.47;;;14.50;99.90;;;;;;4979481;29;20475;-44
2022/11/01 01:12:35;;;;;;;31.03;17.60;;;14.50;99.90;;;;;;4979894;29;20459;-46
2022/11/01 01:15:02;;;;;;;28.57;16.93;;;14.40;99.90;;;;;;4979615;29;20531;-46
2022/11/01 01:17:31;;;;;;;30.77;20.30;;;14.40;99.90;;;;;;4978742;29;20476;-41
2022/11/01 01:20:00;;;;;;;29.73;19.20;;;14.40;99.90;;;;;;4978303;29;20455;-45
2022/11/01 01:22:27;;;;;;;33.53;17.80;;;14.40;99.90;;;;;;4979034;29;20448;-45
2022/11/01 01:24:54;;;;;;;28.83;17.97;;;14.40;99.90;;;;;;4979399;29;20546;-46
2022/11/01 01:27:21;;;;;;;24.07;17.70;;;14.40;99.90;;;;;;4979401;29;20523;-45
2022/11/01 01:29:48;;;;;;;33.33;20.10;;;14.40;99.90;;;;;;4979015;29;20436;-42
2022/11/01 01:32:15;;;;;;;30.10;19.53;;;14.40;99.90;;;;;;4979504;29;20458;-43
2022/11/01 01:34:44;;;;;;;32.00;19.67;;;14.40;99.90;;;;;;4979379;29;20495;-49
2022/11/01 01:37:13;;;;;;;30.40;20.07;;;14.40;99.90;;;;;;4978730;29;20447;-45
2022/11/01 01:39:41;;;;;;;35.33;19.20;;;14.40;99.90;;;;;;4978835;29;20467;-45
2022/11/01 01:42:16;;;;;;;28.20;19.23;;;14.50;99.90;;;;;;4973651;29;20531;-49
2022/11/01 01:45:21;;;;;;;30.20;19.40;;;14.40;99.90;;;;;;4970906;29;20467;-46
2022/11/01 01:47:53;;;;;;;29.33;19.63;;;14.40;99.90;;;;;;4978419;29;20435;-47
2022/11/01 01:50:28;;;;;;;30.77;19.93;;;14.40;99.90;;;;;;4966671;29;20433;-47
2022/11/01 01:52:57;;;;;;;26.93;18.90;;;14.40;99.90;;;;;;4973829;28;20444;-44
2022/11/01 01:55:27;;;;;;;31.03;17.67;;;14.40;99.90;;;;;;4966982;29;20428;-41
2022/11/01 01:57:56;;;;;;;27.57;20.30;;;14.40;99.90;;;;;;4978670;29;20470;-40
2022/11/01 02:00:23;;;;;;;27.40;19.73;;;14.40;99.90;;;;;;4978693;29;20503;-49
2022/11/01 02:02:50;;;;;;;33.83;19.77;;;14.40;99.90;;;;;;4978569;29;20503;-43
2022/11/01 02:05:25;;;;;;;23.27;17.43;;;14.40;99.90;;;;;;4978409;29;20475;-45
2022/11/01 02:07:53;;;;;;;30.43;18.40;;;14.40;99.90;;;;;;4978257;29;20437;-47
2022/11/01 02:10:20;;;;;;;30.37;18.57;;;14.40;99.90;;;;;;4974638;29;20471;-51
2022/11/01 02:12:49;;;;;;;30.93;19.57;;;14.30;99.90;;;;;;4969237;29;20462;-42
2022/11/01 02:15:17;;;;;;;38.93;20.47;;;14.30;99.90;;;;;;4978382;29;20447;-44
2022/11/01 02:17:56;;;;;;;34.70;21.20;;;14.30;99.90;;;;;;4978028;29;20436;-44
2022/11/01 02:20:41;;;;;;;33.37;19.83;;;14.30;99.90;;;;;;4977424;29;20432;-44
2022/11/01 02:23:31;;;;;;;29.83;18.73;;;14.30;99.90;;;;;;4977907;29;20436;-47
2022/11/01 02:26:19;;;;;;;28.63;17.33;;;14.30;99.90;;;;;;4957460;29;20483;-42
2022/11/01 02:29:03;;;;;;;35.23;19.50;;;14.30;99.90;;;;;;4977800;29;20512;-43
2022/11/01 02:31:45;;;;;;;30.70;20.57;;;14.20;99.90;;;;;;4977835;29;20414;-48
2022/11/01 02:34:19;;;;;;;33.47;21.40;;;14.20;99.90;;;;;;4977793;29;20475;-46
2022/11/01 02:36:49;;;;;;;34.47;20.47;;;14.20;99.90;;;;;;4977742;29;20763;-49
2022/11/01 02:39:19;;;;;;;29.00;18.40;;;14.20;99.90;;;;;;4964344;29;20452;-52
2022/11/01 02:41:58;;;;;;;33.33;20.20;;;14.20;99.90;;;;;;4970352;29;20443;-43
2022/11/01 02:44:28;;;;;;;29.27;20.00;;;14.20;99.90;;;;;;4970031;29;20458;-45
2022/11/01 02:47:02;;;;;;;30.73;19.43;;;14.10;99.90;;;;;;4967896;29;20468;-46
2022/11/01 02:49:38;;;;;;;22.97;19.20;;;14.10;99.90;;;;;;4977539;29;20452;-45
2022/11/01 02:52:08;;;;;;;35.20;19.73;;;14.10;99.90;;;;;;4975842;29;20566;-45
2022/11/01 02:54:39;;;;;;;34.07;22.20;;;14.10;99.90;;;;;;4964904;29;20438;-43
2022/11/01 02:57:26;;;;;;;35.13;20.33;;;14.10;99.90;;;;;;4977572;29;20433;-44
2022/11/01 03:00:00;;;;;;;28.60;19.00;;;14.10;99.90;;;;;;4977476;29;20432;-46
2022/11/01 03:02:39;;;;;;;30.10;21.00;;;14.00;99.90;;;;;;4968426;29;20490;-47
2022/11/01 03:05:16;;;;;;;29.20;18.03;;;14.00;99.90;;;;;;4972852;28;20471;-45
2022/11/01 03:07:47;;;;;;;34.27;20.30;;;14.00;99.90;;;;;;4977968;29;20426;-46
2022/11/01 03:10:14;;;;;;;32.43;19.43;;;14.00;99.90;;;;;;4978055;29;20465;-46
2022/11/01 03:12:51;;;;;;;33.23;20.70;;;14.00;99.90;;;;;;4970631;29;20448;-43
2022/11/01 03:15:22;;;;;;;31.10;19.90;;;13.90;99.90;;;;;;4971442;29;20511;-41
2022/11/01 03:17:53;;;;;;;32.13;21.47;;;13.90;99.90;;;;;;4977069;29;20507;-46
2022/11/01 03:20:46;;;;;;;33.13;20.47;;;14.00;99.90;;;;;;4977153;29;20445;-43
2022/11/01 03:23:15;;;;;;;39.33;20.77;;;13.90;99.90;;;;;;4976877;29;20482;-55
2022/11/01 03:25:47;;;;;;;29.53;20.60;;;13.90;99.90;;;;;;4977193;29;20514;-49
2022/11/01 03:28:20;;;;;;;31.03;20.07;;;14.00;99.90;;;;;;4976994;29;20484;-43
2022/11/01 03:30:50;;;;;;;36.53;20.80;;;13.90;99.90;;;;;;4977251;29;20440;-48
2022/11/01 03:33:18;;;;;;;33.60;19.80;;;14.00;99.90;;;;;;4977360;29;20522;-44
2022/11/01 03:35:50;;;;;;;31.03;18.67;;;14.00;99.90;;;;;;4963414;29;20451;-46
2022/11/01 03:38:20;;;;;;;31.83;21.40;;;14.00;99.90;;;;;;4967710;29;20439;-46
2022/11/01 03:40:53;;;;;;;36.27;20.80;;;14.00;99.90;;;;;;4974780;29;20486;-42
2022/11/01 03:43:25;;;;;;;31.40;19.60;;;14.00;99.90;;;;;;4976947;29;20432;-42
2022/11/01 03:45:52;;;;;;;28.63;20.53;;;14.00;99.90;;;;;;4976868;29;20468;-42
2022/11/01 03:48:22;;;;;;;35.67;21.77;;;13.90;99.90;;;;;;4969789;29;20539;-43
2022/11/01 03:50:52;;;;;;;36.70;21.80;;;13.90;99.90;;;;;;4965098;29;20452;-44
2022/11/01 03:53:25;;;;;;;34.70;20.77;;;13.90;99.90;;;;;;4972954;29;20464;-45
2022/11/01 03:55:52;;;;;;;31.57;20.03;;;13.90;99.90;;;;;;4967283;29;20429;-45
2022/11/01 03:58:20;;;;;;;28.83;18.80;;;13.80;99.90;;;;;;4976937;29;20451;-45
2022/11/01 04:00:47;;;;;;;27.60;19.60;;;13.80;99.90;;;;;;4977051;29;20504;-45
2022/11/01 04:03:14;;;;;;;34.67;20.93;;;13.80;99.90;;;;;;4962487;29;20539;-47
2022/11/01 04:05:42;;;;;;;36.50;21.10;;;13.80;99.90;;;;;;4969466;29;20495;-46
2022/11/01 04:08:11;;;;;;;33.03;20.07;;;13.80;99.90;;;;;;4970544;29;20448;-47
2022/11/01 04:10:38;;;;;;;22.67;18.50;;;13.80;99.90;;;;;;4976112;29;20515;-43
2022/11/01 04:13:05;;;;;;;37.70;21.03;;;13.80;99.90;;;;;;4977024;29;20523;-45
2022/11/01 04:21:08;;;;;;;28.00;18.13;;;13.60;99.90;;;;;;4980664;29;20411;-53
2022/11/01 04:23:36;;;;;;;30.00;18.53;;;13.70;99.90;;;;;;4980567;29;20527;-43
2022/11/01 04:26:12;;;;;;;33.80;19.70;;;13.60;99.90;;;;;;4979984;29;20487;-51
2022/11/01 04:28:40;;;;;;;37.50;21.20;;;13.60;99.90;;;;;;4980419;29;20441;-55
2022/11/01 04:31:08;;;;;;;32.77;20.50;;;13.60;99.90;;;;;;4980453;29;20444;-52
2022/11/01 04:33:35;;;;;;;29.10;19.00;;;13.60;99.90;;;;;;4980212;28;20458;-46
2022/11/01 04:36:04;;;;;;;31.00;19.03;;;13.60;99.90;;;;;;4980271;29;20471;-48
2022/11/01 04:38:31;;;;;;;30.43;21.17;;;13.60;99.90;;;;;;4980285;29;20447;-54
2022/11/01 04:41:00;;;;;;;37.30;20.87;;;13.60;99.90;;;;;;4979927;29;20544;-49
2022/11/01 04:43:26;;;;;;;27.63;18.70;;;13.60;99.90;;;;;;4979938;29;20546;-40
2022/11/01 04:45:57;;;;;;;31.13;20.07;;;13.60;99.90;;;;;;4979786;29;20501;-44
2022/11/01 04:48:25;;;;;;;29.70;18.60;;;13.70;99.90;;;;;;4979640;29;20535;-48
2022/11/01 04:50:52;;;;;;;31.57;19.60;;;13.60;99.90;;;;;;4979395;29;20447;-42
2022/11/01 04:53:18;;;;;;;32.30;20.53;;;13.60;99.90;;;;;;4979890;29;20515;-43
2022/11/01 04:55:50;;;;;;;28.10;19.23;;;13.70;99.90;;;;;;4966743;29;20440;-45
2022/11/01 04:58:18;;;;;;;29.43;18.63;;;13.70;99.90;;;;;;4979845;29;20491;-45
2022/11/01 05:00:44;;;;;;;36.17;19.60;;;13.70;99.90;;;;;;4979027;29;20550;-50
2022/11/01 05:03:11;;;;;;;37.13;20.50;;;13.70;99.90;;;;;;4979567;29;20459;-42
2022/11/01 05:05:40;;;;;;;36.90;20.50;;;13.60;99.90;;;;;;4979092;29;20491;-53
2022/11/01 05:08:09;;;;;;;33.60;18.33;;;13.70;99.90;;;;;;4979211;29;20460;-47
2022/11/01 05:10:37;;;;;;;30.70;20.47;;;13.60;99.90;;;;;;4979680;29;20467;-49
2022/11/01 05:13:05;;;;;;;31.60;19.60;;;13.60;99.90;;;;;;4978828;29;20519;-44
2022/11/01 05:15:33;;;;;;;36.90;20.30;;;13.60;99.90;;;;;;4979094;29;20605;-41
2022/11/01 05:18:02;;;;;;;29.23;18.47;;;13.60;99.90;;;;;;4978770;29;20544;-45
2022/11/01 05:20:34;;;;;;;34.47;18.77;;;13.60;99.90;;;;;;4978621;29;20452;-44
2022/11/01 05:23:03;;;;;;;40.47;19.83;;;13.60;99.90;;;;;;4978888;29;20447;-45
2022/11/01 05:25:30;;;;;;;30.50;19.27;;;13.60;99.90;;;;;;4979124;29;20497;-42
2022/11/01 05:28:02;;;;;;;30.27;19.87;;;13.60;99.90;;;;;;4977949;28;20515;-47
2022/11/01 05:30:29;;;;;;;30.43;18.00;;;13.60;99.90;;;;;;4978673;29;20484;-41
2022/11/01 05:32:58;;;;;;;30.10;19.43;;;13.60;99.90;;;;;;4978917;29;20439;-40
2022/11/01 05:35:29;;;;;;;37.60;18.77;;;13.60;99.90;;;;;;4978643;29;20451;-44
2022/11/01 05:37:59;;;;;;;28.07;21.03;;;13.60;99.90;;;;;;4978755;29;20482;-41
2022/11/01 05:40:26;;;;;;;32.30;20.30;;;13.60;99.90;;;;;;4978957;29;20466;-45
2022/11/01 05:42:53;;;;;;;28.93;18.70;;;13.50;99.90;;;;;;4978568;29;20478;-44
2022/11/01 05:45:19;;;;;;;27.17;19.77;;;13.60;99.90;;;;;;4978636;29;20462;-44
2022/11/01 05:47:46;;;;;;;34.17;20.23;;;13.60;99.90;;;;;;4966255;29;20450;-47
2022/11/01 05:50:16;;;;;;;32.73;21.47;;;13.50;99.90;;;;;;4971164;29;20471;-46
2022/11/01 05:52:43;;;;;;;31.00;18.37;;;13.50;99.90;;;;;;4971888;29;20450;-44
2022/11/01 05:55:10;;;;;;;24.47;17.20;;;13.50;99.90;;;;;;4973935;29;20475;-43
2022/11/01 05:57:37;;;;;;;33.07;19.40;;;13.50;99.90;;;;;;4968202;29;20444;-47
2022/11/01 06:00:06;;;;;;;30.20;19.23;;;13.40;99.90;;;;;;4978143;29;20454;-50
2022/11/01 06:02:33;;;;;;;32.63;18.93;;;13.40;99.90;;;;;;4978001;29;20454;-46
2022/11/01 06:05:00;;;;;;;32.57;20.60;;;13.40;99.90;;;;;;4977626;29;20467;-42
2022/11/01 06:07:29;;;;;;;32.80;20.10;;;13.30;99.90;;;;;;4992328;23;20547;-53
2022/11/01 06:10:08;;;;;;;27.93;19.10;;;13.30;99.90;;;;;;4976892;29;20451;-51
2022/11/01 06:12:34;;;;;;;32.60;20.27;;;12.40;99.90;;;;;;4977418;29;20428;-55
2022/11/01 06:15:01;;;;;;;33.97;19.10;;;13.30;99.90;;;;;;4977671;29;20794;-54
2022/11/01 06:17:28;;;;;;;28.20;19.70;;;13.20;99.90;;;;;;4978345;29;20448;-51
2022/11/01 06:19:55;;;;;;;39.30;20.57;;;13.20;99.90;;;;;;4978090;29;20551;-51
2022/11/01 06:22:21;;;;;;;34.50;18.67;;;13.20;99.90;;;;;;4967285;29;20506;-56
2022/11/01 06:24:50;;;;;;;30.97;17.33;;;13.30;99.90;;;;;;4975223;29;20558;-55
2022/11/01 06:27:16;;;;;;;31.20;18.40;;;13.30;99.90;;;;;;4977617;29;20463;-54
2022/11/01 06:29:43;;;;;;;31.63;19.40;;;13.30;99.90;;;;;;4977831;29;20483;-50
2022/11/01 06:32:10;;;;;;;36.33;21.70;;;13.30;99.90;;;;;;4977979;29;20527;-51
2022/11/01 06:34:37;;;;;;;33.83;19.03;;;13.30;99.90;;;;;;4978176;29;20536;-46
2022/11/01 06:37:04;;;;;;;34.30;19.63;;;13.30;99.90;;;;;;4978002;29;20460;-48
2022/11/01 06:39:31;;;;;;;31.87;18.60;;;13.30;99.90;;;;;;4977139;28;20496;-51
2022/11/01 06:41:59;;;;;;;32.17;19.50;;;13.40;99.90;;;;;;4978015;28;20451;-55
2022/11/01 06:44:26;;;;;;;35.50;17.67;;;13.40;99.90;;;;;;4977016;29;20503;-53
2022/11/01 06:46:53;;;;;;;29.23;17.60;;;13.50;99.90;;;;;;4977663;29;20551;-47
2022/11/01 06:49:20;;;;;;;25.63;18.87;;;13.50;99.90;;;;;;4977750;29;20451;-47
2022/11/01 06:51:49;;;;;;;39.27;19.30;;;13.40;99.90;;;;;;4978193;29;20515;-47
2022/11/01 06:54:16;;;;;;;26.87;17.47;;;13.40;99.90;;;;;;4978423;28;20447;-51
2022/11/01 06:56:43;;;;;;;31.70;18.43;;;13.40;99.90;;;;;;4978363;29;20491;-54
2022/11/01 06:59:11;;;;;;;31.53;20.90;;;13.40;99.90;;;;;;4978262;29;20539;-54
2022/11/01 07:01:38;;;;;;;38.07;19.30;;;13.40;99.90;;;;;;4978007;29;20499;-44
2022/11/01 07:04:07;;;;;;;31.53;17.63;;;13.50;99.90;;;;;;4977618;29;20463;-56
2022/11/01 07:06:33;;;;;;;35.53;19.07;;;13.50;99.90;;;;;;4977274;29;20475;-48
2022/11/01 07:09:00;;;;;;;26.00;17.47;;;13.60;99.90;;;;;;4970318;29;20468;-54
2022/11/01 07:11:28;;;;;;;27.80;16.50;;;13.70;99.90;;;;;;4969757;29;20447;-50
2022/11/01 07:13:55;;;;;;;31.00;16.93;;;13.70;99.90;;;;;;4977917;29;20462;-54
2022/11/01 07:16:28;;;;;;;31.93;18.07;;;13.80;99.90;;;;;;4977761;29;20447;-47
2022/11/01 07:18:55;;;;;;;28.30;17.37;;;13.90;99.90;;;;;;4977587;29;20437;-54
2022/11/01 07:21:22;;;;;;;34.03;17.97;;;13.90;99.90;;;;;;4972129;29;21045;-56
2022/11/01 07:23:51;;;;;;;30.47;15.40;;;13.90;99.90;;;;;;4969060;29;20518;-44
2022/11/01 07:26:18;;;;;;;27.20;16.87;;;13.90;99.90;;;;;;4977593;29;20492;-51
2022/11/01 07:28:46;;;;;;;32.40;18.20;;;14.00;99.90;;;;;;4977910;29;20463;-58
2022/11/01 07:31:15;;;;;;;43.63;18.47;;;14.00;99.90;;;;;;4977812;29;20432;-54
2022/11/01 07:33:43;;;;;;;32.80;18.93;;;14.00;99.90;;;;;;4964295;29;20467;-50
2022/11/01 07:36:10;;;;;;;29.77;18.00;;;13.90;99.90;;;;;;4977841;29;20456;-58
2022/11/01 07:38:37;;;;;;;26.23;16.60;;;13.80;99.90;;;;;;4977905;29;20527;-55
2022/11/01 07:41:04;;;;;;;25.30;16.30;;;13.80;99.90;;;;;;4978069;29;20810;-53
2022/11/01 07:43:31;;;;;;;32.57;17.63;;;13.90;99.90;;;;;;4977526;29;20442;-55
2022/11/01 07:45:59;;;;;;;29.60;16.77;;;13.90;99.90;;;;;;4977122;29;20498;-49
2022/11/01 07:48:26;;;;;;;30.03;17.80;;;14.00;99.90;;;;;;4977360;29;20448;-53
2022/11/01 07:50:57;;;;;;;28.07;19.97;;;14.00;99.90;;;;;;4978745;28;20462;-49
2022/11/01 07:53:24;;;;;;;28.57;17.67;;;13.90;99.90;;;;;;4980799;29;20440;-57
2022/11/01 07:55:51;;;;;;;22.33;15.40;;;13.90;99.90;;;;;;4977704;29;20443;-55
2022/11/01 07:58:18;;;;;;;24.23;16.63;;;14.00;99.90;;;;;;4969585;29;20524;-51
2022/11/01 08:00:45;;;;;;;26.30;16.73;;;14.00;99.90;;;;;;4981279;29;20479;-59
2022/11/01 08:03:14;;;;;;;25.97;16.33;;;14.10;99.90;;;;;;4981520;29;20471;-50
2022/11/01 08:05:42;;;;;;;22.17;14.07;;;14.10;99.90;;;;;;4981546;29;20519;-47
2022/11/01 08:08:11;;;;;;;25.23;17.07;;;14.10;99.90;;;;;;4981426;29;20483;-51
2022/11/01 08:10:38;;;;;;;31.80;17.30;;;14.20;99.90;;;;;;4981226;29;20428;-55
2022/11/01 08:13:13;;;;;;;21.60;15.20;;;14.10;99.90;;;;;;4981441;29;20507;-55
2022/11/01 08:15:40;;;;;;;24.80;16.30;;;14.10;99.90;;;;;;4981267;29;20526;-54
2022/11/01 08:18:09;;;;;;;22.43;13.90;;;14.20;99.90;;;;;;4981287;29;20424;-51
2022/11/01 08:20:36;;;;;;;24.50;16.33;;;14.20;99.90;;;;;;4981035;29;20498;-57
2022/11/01 08:23:03;;;;;;;29.00;17.07;;;14.30;99.90;;;;;;4981450;28;20435;-58
2022/11/01 08:25:34;;;;;;;21.80;14.17;;;14.30;99.90;;;;;;4981091;29;20451;-59
2022/11/01 08:28:02;;;;;;;26.57;16.43;;;14.30;99.90;;;;;;4971249;29;20491;-54
2022/11/01 08:30:29;;;;;;;24.43;16.40;;;14.40;99.90;;;;;;4976288;29;20524;-50
2022/11/01 08:32:59;;;;;;;23.97;15.03;;;14.50;99.90;;;;;;4963549;29;20456;-54
2022/11/01 08:35:26;;;;;;;24.03;14.40;;;14.50;99.90;;;;;;4967471;29;20436;-51
2022/11/01 08:37:55;;;;;;;22.30;13.33;;;14.60;99.90;;;;;;4978439;29;20475;-53
2022/11/01 08:40:22;;;;;;;18.40;12.87;;;14.60;99.90;;;;;;4980027;29;20481;-51
2022/11/01 08:42:51;;;;;;;22.30;13.40;;;14.70;99.90;;;;;;4980433;29;20462;-46
2022/11/01 08:45:18;;;;;;;20.93;14.40;;;14.80;99.90;;;;;;4980201;29;20434;-52
2022/11/01 08:47:45;;;;;;;17.73;13.33;;;14.90;99.90;;;;;;4979969;29;20472;-54
2022/11/01 08:50:14;;;;;;;22.03;12.80;;;15.10;99.90;;;;;;4980071;29;20435;-55
2022/11/01 08:52:41;;;;;;;21.50;13.87;;;15.20;99.90;;;;;;4980164;29;20480;-53
2022/11/01 08:55:11;;;;;;;20.60;11.27;;;15.20;99.90;;;;;;4979920;29;20504;-58
2022/11/01 08:57:40;;;;;;;22.93;12.80;;;15.30;99.90;;;;;;4980786;29;20496;-53
2022/11/01 09:00:15;;;;;;;19.83;12.10;;;15.40;99.90;;;;;;4980131;29;20433;-53
2022/11/01 09:02:42;;;;;;;20.07;12.27;;;15.60;99.90;;;;;;4979365;28;20412;-55
2022/11/01 09:05:09;;;;;;;18.53;11.20;;;15.70;99.90;;;;;;4979429;29;20440;-52
2022/11/01 09:07:39;;;;;;;17.80;11.10;;;15.90;99.90;;;;;;4979172;29;20487;-53
2022/11/01 09:10:06;;;;;;;14.53;10.93;;;16.00;99.90;;;;;;4979768;29;20531;-53
2022/11/01 09:12:34;;;;;;;34.13;12.70;;;16.10;99.90;;;;;;4963586;29;20451;-54
2022/11/01 09:15:00;;;;;;;16.10;11.00;;;16.20;99.90;;;;;;4979538;29;20464;-50
2022/11/01 09:17:29;;;;;;;17.80;12.47;;;16.20;99.90;;;;;;4980027;29;20522;-56
2022/11/01 09:19:56;;;;;;;14.07;10.40;;;16.30;99.90;;;;;;4964139;29;20903;-55
2022/11/01 09:22:23;;;;;;;14.97;10.00;;;16.30;99.90;;;;;;4979094;29;20483;-49
2022/11/01 09:24:50;;;;;;;12.83;10.60;;;16.50;99.90;;;;;;4979628;29;20467;-46
2022/11/01 09:27:17;;;;;;;15.70;11.03;;;16.70;99.90;;;;;;4979706;29;20539;-52
2022/11/01 09:29:44;;;;;;;17.77;10.27;;;16.90;99.90;;;;;;4980007;29;20514;-55
2022/11/01 09:32:10;;;;;;;15.00;9.80;;;17.20;99.90;;;;;;4979376;29;20483;-51
2022/11/01 09:34:39;;;;;;;15.50;11.73;;;17.30;99.90;;;;;;4970125;29;20500;-55
2022/11/01 09:37:06;;;;;;;18.33;10.70;;;17.30;99.90;;;;;;4954141;29;20444;-53
2022/11/01 09:39:33;;;;;;;11.63;10.33;;;17.30;99.90;;;;;;4979256;29;20474;-48
2022/11/01 09:42:07;;;;;;;17.73;12.07;;;17.10;99.90;;;;;;4979355;29;20448;-44
2022/11/01 09:44:37;;;;;;;19.13;10.17;;;17.10;99.90;;;;;;4979226;29;20600;-50
2022/11/01 09:47:07;;;;;;;22.80;11.60;;;17.00;99.90;;;;;;4979232;28;20523;-52
2022/11/01 09:49:38;;;;;;;20.60;10.30;;;17.00;99.90;;;;;;4979492;29;20463;-52
2022/11/01 09:52:10;;;;;;;15.70;10.73;;;17.30;99.90;;;;;;4978946;29;20436;-50
2022/11/01 09:54:37;;;;;;;15.67;11.50;;;17.50;99.90;;;;;;4978876;29;20428;-46
2022/11/01 09:57:16;;;;;;;15.67;10.27;;;17.50;99.90;;;;;;4978897;29;20444;-49
2022/11/01 09:59:50;;;;;;;14.57;9.10;;;17.50;99.90;;;;;;4979384;29;20451;-52
2022/11/01 10:02:51;;;;;;;14.00;9.30;;;17.50;99.90;;;;;;4979035;29;20487;-54
2022/11/01 10:05:31;;;;;;;11.30;8.77;;;17.50;99.90;;;;;;4979051;29;20483;-63
2022/11/01 10:08:07;;;;;;;12.77;8.83;;;17.40;99.90;;;;;;4978938;29;20483;-53
2022/11/01 10:10:38;;;;;;;12.93;11.63;;;17.30;99.90;;;;;;4978635;29;20472;-52
2022/11/01 10:13:26;;;;;;;13.10;9.27;;;17.10;99.90;;;;;;4978392;28;20424;-48
2022/11/01 10:16:02;;;;;;;22.43;10.13;;;17.10;99.90;;;;;;4978396;29;20432;-49
2022/11/01 10:18:30;;;;;;;17.17;9.83;;;17.10;99.90;;;;;;4979114;29;20416;-51
2022/11/01 10:20:59;;;;;;;18.97;9.77;;;17.20;99.90;;;;;;4978885;29;20504;-50
2022/11/01 10:23:37;;;;;;;13.77;9.60;;;17.10;99.90;;;;;;4969937;29;20566;-55
2022/11/01 10:26:06;;;;;;;16.77;9.13;;;17.10;99.90;;;;;;4971402;29;20432;-51
2022/11/01 10:28:41;;;;;;;12.40;9.07;;;17.00;99.90;;;;;;4978446;29;20567;-53
2022/11/01 10:31:14;;;;;;;13.00;9.77;;;17.10;99.90;;;;;;4978472;29;20488;-56
2022/11/01 10:33:47;;;;;;;14.90;10.03;;;17.20;99.90;;;;;;4978268;29;20416;-60
2022/11/01 10:36:19;;;;;;;13.87;8.93;;;17.20;99.90;;;;;;4978691;29;20497;-55
2022/11/01 10:38:50;;;;;;;12.23;9.63;;;17.20;99.90;;;;;;4962361;29;20424;-56
2022/11/01 10:41:23;;;;;;;20.87;9.53;;;17.20;99.90;;;;;;4977927;29;20475;-54
2022/11/01 10:43:53;;;;;;;25.27;16.23;;;17.20;99.90;;;;;;4978435;28;20458;-52
2022/11/01 10:46:23;;;;;;;20.53;11.40;;;17.20;99.90;;;;;;4978899;29;20455;-55
2022/11/01 10:48:53;;;;;;;19.03;9.87;;;17.20;99.90;;;;;;4978695;29;20475;-57
2022/11/01 10:51:24;;;;;;;12.43;7.73;;;17.10;99.90;;;;;;4979034;29;20448;-49
2022/11/01 10:53:57;;;;;;;10.80;7.70;;;17.10;99.90;;;;;;4978688;28;20480;-52
2022/11/01 10:56:27;;;;;;;9.43;7.13;;;17.10;99.90;;;;;;4978995;29;20432;-60
2022/11/01 10:59:00;;;;;;;18.07;8.30;;;17.10;99.90;;;;;;4979263;29;20455;-51
2022/11/01 11:01:30;;;;;;;14.43;7.63;;;17.00;99.90;;;;;;4979516;29;20475;-60
2022/11/01 11:04:00;;;;;;;10.53;7.40;;;17.10;99.90;;;;;;4979261;28;20986;-52
2022/11/01 11:06:27;;;;;;;12.50;8.33;;;17.10;99.90;;;;;;4979084;28;20486;-60
2022/11/01 11:08:58;;;;;;;8.93;6.90;;;17.10;99.90;;;;;;4978998;29;20498;-63
2022/11/01 11:11:34;;;;;;;9.23;7.13;;;17.30;99.90;;;;;;4979216;29;20508;-59
2022/11/01 11:14:05;;;;;;;11.27;7.20;;;17.40;99.90;;;;;;4978543;29;20795;-54
2022/11/01 11:16:37;;;;;;;13.67;6.50;;;17.60;99.90;;;;;;4978094;29;20498;-44
2022/11/01 11:19:18;;;;;;;10.57;7.90;;;17.90;99.90;;;;;;4978769;29;20440;-50
2022/11/01 11:21:48;;;;;;;7.37;6.03;;;18.10;99.90;;;;;;4978595;29;20412;-57
2022/11/01 11:24:22;;;;;;;8.43;6.53;;;18.30;99.90;;;;;;4978322;29;20471;-63
2022/11/01 11:26:51;;;;;;;11.13;6.53;;;18.40;99.90;;;;;;4966320;28;20432;-55
2022/11/01 11:29:36;;;;;;;11.77;7.23;;;18.50;99.90;;;;;;4973052;29;20488;-48
2022/11/01 11:32:05;;;;;;;7.77;5.57;;;18.50;99.90;;;;;;4978091;29;20428;-50
2022/11/01 11:34:34;;;;;;;8.67;7.13;;;18.50;99.90;;;;;;4978044;29;20454;-50
2022/11/01 11:37:02;;;;;;;21.37;11.93;;;18.50;99.90;;;;;;4977864;29;20459;-50
2022/11/01 11:39:34;;;;;;;10.83;6.80;;;18.40;99.90;;;;;;4977890;29;20435;-52
2022/11/01 11:42:14;;;;;;;10.70;6.20;;;18.40;99.90;;;;;;4977787;29;20476;-48
2022/11/01 11:44:46;;;;;;;7.90;5.27;;;18.30;99.90;;;;;;4977662;29;20442;-52
2022/11/01 11:47:21;;;;;;;6.80;5.83;;;18.10;99.90;;;;;;4977680;29;20439;-55
2022/11/01 11:49:49;;;;;;;6.17;4.97;;;18.10;99.90;;;;;;4977928;29;20451;-49
2022/11/01 11:52:19;;;;;;;11.00;5.10;;;18.00;99.90;;;;;;4977963;29;20471;-47
2022/11/01 11:54:47;;;;;;;7.57;4.70;;;18.00;99.90;;;;;;4977554;29;20512;-50
2022/11/01 11:57:19;;;;;;;9.40;5.47;;;18.00;99.90;;;;;;4977226;29;20474;-53
2022/11/01 11:59:52;;;;;;;9.33;6.90;;;17.90;99.90;;;;;;4976912;29;20436;-49
2022/11/01 12:02:23;;;;;;;9.90;6.30;;;17.90;99.90;;;;;;4976491;29;20443;-51
2022/11/01 12:04:56;;;;;;;8.40;6.07;;;17.90;99.90;;;;;;4977323;29;20447;-45
2022/11/01 12:07:28;;;;;;;8.90;5.13;;;17.80;99.90;;;;;;4977302;29;20487;-47
2022/11/01 12:10:01;;;;;;;6.47;5.13;;;17.70;99.90;;;;;;4976774;29;20459;-49
2022/11/01 12:12:29;;;;;;;8.77;5.73;;;17.70;99.90;;;;;;4977182;29;20471;-46
2022/11/01 12:14:58;;;;;;;7.77;5.27;;;17.70;99.90;;;;;;4977555;29;20447;-44
2022/11/01 12:17:35;;;;;;;13.40;6.10;;;17.70;99.90;;;;;;4977295;29;20448;-54
2022/11/01 12:20:09;;;;;;;7.03;4.80;;;17.80;99.90;;;;;;4960262;29;20486;-50
2022/11/01 12:22:40;;;;;;;6.23;5.63;;;17.70;99.90;;;;;;4976613;29;20427;-53
2022/11/01 12:25:14;;;;;;;6.40;4.97;;;17.80;99.90;;;;;;4977383;29;20471;-44
2022/11/01 12:27:49;;;;;;;8.17;5.47;;;17.80;99.90;;;;;;4976913;29;20474;-48
2022/11/01 12:30:19;;;;;;;14.43;5.00;;;17.80;99.90;;;;;;4976983;29;20428;-52
2022/11/01 12:32:51;;;;;;;10.53;5.80;;;17.90;99.90;;;;;;4977422;29;20467;-47
2022/11/01 12:35:24;;;;;;;29.20;15.73;;;17.90;99.90;;;;;;4976640;29;20499;-51
2022/11/01 12:38:35;;;;;;;15.40;8.97;;;17.90;99.90;;;;;;4979605;28;20459;-49
2022/11/01 12:41:22;;;;;;;11.73;4.60;;;17.90;99.90;;;;;;4980495;29;20435;-52
2022/11/01 12:44:08;;;;;;;7.23;5.90;;;17.90;99.90;;;;;;4980381;29;20471;-50
2022/11/01 12:46:40;;;;;;;10.57;6.10;;;17.90;99.90;;;;;;4980193;29;20444;-45
2022/11/01 12:49:14;;;;;;;10.00;5.97;;;17.90;99.90;;;;;;4980106;29;20521;-51
2022/11/01 12:51:47;;;;;;;9.17;5.77;;;17.90;99.90;;;;;;4980532;29;20471;-43